Time;durP1;ratioP1;P1;durP2;ratioP2;P2;SDS_P1;SDS_P2;PMS_P1;PMS_P2;Temp;Humidity;BMP_temperature;BMP_pressure;BME280_temperature;BME280_humidity;BME280_pressure;Samples;Min_cycle;Max_cycle;Signal;HPM_P1;HPM_P2
2023/11/02 00:02:17;;;;;;;;;;;22.90;48.70;;;;;;5114291;28;20026;-59
2023/11/02 00:04:44;;;;;;;;;;;22.90;48.80;;;;;;5114204;28;19923;-58
2023/11/02 00:07:11;;;;;;;;;;;22.90;48.80;;;;;;5114405;28;19931;-58
2023/11/02 00:09:39;;;;;;;;;;;22.90;48.80;;;;;;5113396;28;19924;-57
2023/11/02 00:12:14;;;;;;;;;;;22.90;48.80;;;;;;5114075;28;19927;-59
2023/11/02 00:14:51;;;;;;;;;;;22.90;48.80;;;;;;5113740;28;20311;-58
2023/11/02 00:17:38;;;;;;;;;;;22.90;49.30;;;;;;5106255;28;19924;-58
2023/11/02 00:20:11;;;;;;;;;;;22.90;48.80;;;;;;5098838;28;19923;-59
2023/11/02 00:22:41;;;;;;;;;;;22.90;48.80;;;;;;5113774;28;19928;-58
2023/11/02 00:25:09;;;;;;;;;;;22.90;48.80;;;;;;5113830;28;20356;-58
2023/11/02 00:27:36;;;;;;;;;;;23.00;48.80;;;;;;5113216;28;19931;-59
2023/11/02 00:30:04;;;;;;;;;;;23.00;48.70;;;;;;5095532;28;20380;-59
2023/11/02 00:32:32;;;;;;;;;;;22.90;48.60;;;;;;5113636;28;20335;-59
2023/11/02 00:34:59;;;;;;;;;;;22.90;48.60;;;;;;5113306;28;19927;-58
2023/11/02 00:37:26;;;;;;;;;;;23.00;48.60;;;;;;5113240;28;19982;-58
2023/11/02 00:39:53;;;;;;;;;;;23.00;48.60;;;;;;5113486;28;19931;-59
2023/11/02 00:42:21;;;;;;;;;;;23.00;48.60;;;;;;5113130;28;20424;-58
2023/11/02 00:44:49;;;;;;;;;;;23.00;48.60;;;;;;5113929;28;19985;-58
2023/11/02 00:47:17;;;;;;;;;;;23.00;48.70;;;;;;5095967;28;19931;-59
2023/11/02 00:49:44;;;;;;;;;;;22.90;48.60;;;;;;5113418;28;19924;-59
2023/11/02 00:52:14;;;;;;;;;;;23.00;48.70;;;;;;5113463;28;20374;-59
2023/11/02 00:55:00;;;;;;;;;;;22.90;48.70;;;;;;5113695;28;19923;-59
2023/11/02 00:57:31;;;;;;;;;;;22.90;48.70;;;;;;5113681;28;19967;-59
2023/11/02 00:59:58;;;;;;;;;;;22.90;48.70;;;;;;5113092;28;19967;-59
2023/11/02 01:02:29;;;;;;;;;;;22.90;48.70;;;;;;5113452;28;19924;-59
2023/11/02 01:04:56;;;;;;;;;;;22.90;48.70;;;;;;5114033;28;19924;-58
2023/11/02 01:07:24;;;;;;;;;;;22.90;48.70;;;;;;5095542;28;19998;-59
2023/11/02 01:09:55;;;;;;;;;;;22.90;48.70;;;;;;5113526;28;20318;-59
2023/11/02 01:12:31;;;;;;;;;;;22.90;48.70;;;;;;5113147;28;19924;-59
2023/11/02 01:15:00;;;;;;;;;;;22.90;48.80;;;;;;5094829;28;19935;-59
2023/11/02 01:17:33;;;;;;;;;;;22.90;48.80;;;;;;5113463;28;19930;-58
2023/11/02 01:20:08;;;;;;;;;;;22.90;48.80;;;;;;5113134;28;19924;-59
2023/11/02 01:22:52;;;;;;;;;;;22.90;48.80;;;;;;5113122;28;19924;-59
2023/11/02 01:25:21;;;;;;;;;;;22.90;49.30;;;;;;5113730;28;19951;-59
2023/11/02 01:27:49;;;;;;;;;;;22.90;48.80;;;;;;5113339;28;19993;-59
2023/11/02 01:30:38;;;;;;;;;;;22.90;48.80;;;;;;5113496;28;20453;-59
2023/11/02 01:33:26;;;;;;;;;;;22.80;48.80;;;;;;5112553;28;19924;-58
2023/11/02 01:35:54;;;;;;;;;;;22.80;48.80;;;;;;5112948;28;19928;-59
2023/11/02 01:38:23;;;;;;;;;;;22.80;48.80;;;;;;5113374;28;20015;-59
2023/11/02 01:40:59;;;;;;;;;;;22.80;48.80;;;;;;5112969;28;20379;-59
2023/11/02 01:43:43;;;;;;;;;;;22.80;48.80;;;;;;5113290;28;19927;-58
2023/11/02 01:46:20;;;;;;;;;;;22.90;48.90;;;;;;5113657;28;19924;-59
2023/11/02 01:48:51;;;;;;;;;;;22.80;48.80;;;;;;5098124;28;19923;-59
2023/11/02 01:51:35;;;;;;;;;;;22.80;48.80;;;;;;5116560;28;19971;-59
2023/11/02 01:54:09;;;;;;;;;;;22.90;48.80;;;;;;5116867;28;19935;-59
2023/11/02 01:56:50;;;;;;;;;;;22.90;48.70;;;;;;5116464;28;20010;-59
2023/11/02 01:59:28;;;;;;;;;;;22.90;48.70;;;;;;5116624;28;19924;-58
2023/11/02 02:02:03;;;;;;;;;;;22.90;48.70;;;;;;5116369;28;19997;-59
2023/11/02 02:04:40;;;;;;;;;;;22.90;48.70;;;;;;5116110;28;20410;-58
2023/11/02 02:07:16;;;;;;;;;;;22.90;48.70;;;;;;5116560;28;19924;-59
2023/11/02 02:09:51;;;;;;;;;;;22.90;48.70;;;;;;5115815;28;19923;-59
2023/11/02 02:12:26;;;;;;;;;;;22.90;48.70;;;;;;5098547;28;19992;-58
2023/11/02 02:14:59;;;;;;;;;;;22.90;48.80;;;;;;5116089;28;20006;-59
2023/11/02 02:17:46;;;;;;;;;;;22.90;48.80;;;;;;5116208;28;19970;-59
2023/11/02 02:20:18;;;;;;;;;;;22.90;48.80;;;;;;5116366;28;20019;-59
2023/11/02 02:23:02;;;;;;;;;;;22.90;48.80;;;;;;5115544;28;19924;-59
2023/11/02 02:25:37;;;;;;;;;;;22.90;48.80;;;;;;5116325;28;20345;-59
2023/11/02 02:28:24;;;;;;;;;;;22.90;48.80;;;;;;5115651;28;19934;-59
2023/11/02 02:30:58;;;;;;;;;;;22.90;48.80;;;;;;5101372;28;19923;-59
2023/11/02 02:33:44;;;;;;;;;;;22.80;48.70;;;;;;5116209;28;19931;-58
2023/11/02 02:36:18;;;;;;;;;;;22.80;48.70;;;;;;5116119;28;19928;-58
2023/11/02 02:38:52;;;;;;;;;;;22.80;48.80;;;;;;5115235;28;19923;-58
2023/11/02 02:41:25;;;;;;;;;;;22.80;48.80;;;;;;5115612;28;20005;-59
2023/11/02 02:43:52;;;;;;;;;;;22.80;48.80;;;;;;5115371;28;19923;-60
2023/11/02 02:46:21;;;;;;;;;;;22.80;48.80;;;;;;5115958;28;20029;-59
2023/11/02 02:48:48;;;;;;;;;;;22.80;48.80;;;;;;5115658;28;20338;-58
2023/11/02 02:51:16;;;;;;;;;;;22.80;48.80;;;;;;5115412;28;19946;-59
2023/11/02 02:53:46;;;;;;;;;;;22.80;48.80;;;;;;5114203;28;19928;-59
2023/11/02 02:56:13;;;;;;;;;;;22.80;48.80;;;;;;5115433;28;19924;-59
2023/11/02 02:58:46;;;;;;;;;;;22.80;48.80;;;;;;5115146;28;19923;-58
2023/11/02 03:01:14;;;;;;;;;;;22.80;48.90;;;;;;5115319;28;19923;-58
2023/11/02 03:03:42;;;;;;;;;;;22.80;48.90;;;;;;5114204;28;19973;-59
2023/11/02 03:06:10;;;;;;;;;;;22.80;48.90;;;;;;5115535;28;19927;-59
2023/11/02 03:08:38;;;;;;;;;;;22.90;49.00;;;;;;5115145;28;19952;-59
2023/11/02 03:11:08;;;;;;;;;;;22.80;48.90;;;;;;5115010;28;19935;-59
2023/11/02 03:13:48;;;;;;;;;;;22.80;48.90;;;;;;5114966;28;19970;-59
2023/11/02 03:16:16;;;;;;;;;;;22.90;49.00;;;;;;5114754;28;19928;-59
2023/11/02 03:18:43;;;;;;;;;;;22.80;48.90;;;;;;5114762;28;19963;-59
2023/11/02 03:21:10;;;;;;;;;;;22.80;48.80;;;;;;5115286;28;20307;-58
2023/11/02 03:23:41;;;;;;;;;;;22.80;48.80;;;;;;5114538;28;19923;-59
2023/11/02 03:26:24;;;;;;;;;;;22.90;48.80;;;;;;5115202;28;19930;-59
2023/11/02 03:29:04;;;;;;;;;;;22.90;48.80;;;;;;5114453;28;19974;-59
2023/11/02 03:31:40;;;;;;;;;;;22.80;48.70;;;;;;5115113;28;20334;-58
2023/11/02 03:34:27;;;;;;;;;;;22.80;48.70;;;;;;5114658;28;19977;-59
2023/11/02 03:37:07;;;;;;;;;;;22.80;48.70;;;;;;5114294;28;20018;-59
2023/11/02 03:39:54;;;;;;;;;;;22.80;48.70;;;;;;5114619;28;19924;-59
2023/11/02 03:42:29;;;;;;;;;;;22.80;48.80;;;;;;5114348;28;19923;-59
2023/11/02 03:45:16;;;;;;;;;;;22.80;48.80;;;;;;5113809;28;19923;-58
2023/11/02 03:48:03;;;;;;;;;;;22.80;48.80;;;;;;5114100;28;19931;-58
2023/11/02 03:50:50;;;;;;;;;;;22.80;48.80;;;;;;5114680;28;19989;-58
2023/11/02 03:53:36;;;;;;;;;;;22.80;48.80;;;;;;5099144;28;20415;-59
2023/11/02 03:56:12;;;;;;;;;;;22.80;48.80;;;;;;5096475;28;19957;-60
2023/11/02 03:58:49;;;;;;;;;;;22.80;48.90;;;;;;5114467;28;19928;-58
2023/11/02 04:01:20;;;;;;;;;;;22.80;48.90;;;;;;5114268;28;19967;-59
2023/11/02 04:03:51;;;;;;;;;;;22.80;48.90;;;;;;5113870;28;19927;-58
2023/11/02 04:06:25;;;;;;;;;;;22.80;48.90;;;;;;5114608;28;20006;-59
2023/11/02 04:08:54;;;;;;;;;;;22.80;48.90;;;;;;5113010;28;19924;-59
2023/11/02 04:11:31;;;;;;;;;;;22.70;48.90;;;;;;5113952;28;19923;-59
2023/11/02 04:14:09;;;;;;;;;;;22.80;48.90;;;;;;5113796;28;20273;-59
2023/11/02 04:16:36;;;;;;;;;;;22.80;48.90;;;;;;5114020;28;19931;-59
2023/11/02 04:19:04;;;;;;;;;;;22.80;48.90;;;;;;5095695;28;19966;-59
2023/11/02 04:21:31;;;;;;;;;;;22.80;48.90;;;;;;5114293;28;19947;-59
2023/11/02 04:23:58;;;;;;;;;;;22.80;48.90;;;;;;5113381;28;19924;-59
2023/11/02 04:26:26;;;;;;;;;;;22.70;48.90;;;;;;5113858;28;19928;-59
2023/11/02 04:28:53;;;;;;;;;;;22.70;49.00;;;;;;5113900;28;19924;-61
2023/11/02 04:31:20;;;;;;;;;;;22.70;49.00;;;;;;5113927;28;19980;-58
2023/11/02 04:33:47;;;;;;;;;;;22.70;49.00;;;;;;5113358;28;19923;-58
2023/11/02 04:36:14;;;;;;;;;;;22.70;49.00;;;;;;5113244;28;19924;-59
2023/11/02 04:38:41;;;;;;;;;;;22.70;49.00;;;;;;5113903;28;19977;-58
2023/11/02 04:41:09;;;;;;;;;;;22.70;48.70;;;;;;5113343;28;19924;-59
2023/11/02 04:43:36;;;;;;;;;;;22.80;48.50;;;;;;5112944;28;20320;-58
2023/11/02 04:46:03;;;;;;;;;;;22.80;48.40;;;;;;5113936;28;20357;-58
2023/11/02 04:48:30;;;;;;;;;;;22.80;48.20;;;;;;5113607;28;19928;-58
2023/11/02 04:50:58;;;;;;;;;;;22.80;48.00;;;;;;5113510;28;20268;-59
2023/11/02 04:53:25;;;;;;;;;;;22.80;47.90;;;;;;5113837;28;19994;-59
2023/11/02 04:55:52;;;;;;;;;;;22.80;47.40;;;;;;5113145;28;20303;-58
2023/11/02 04:58:19;;;;;;;;;;;22.90;47.50;;;;;;5079163;28;19924;-59
2023/11/02 05:00:46;;;;;;;;;;;22.90;47.50;;;;;;5113621;28;19923;-58
2023/11/02 05:03:13;;;;;;;;;;;22.80;47.50;;;;;;5112793;28;19978;-59
2023/11/02 05:05:40;;;;;;;;;;;22.80;47.50;;;;;;5113357;28;19947;-58
2023/11/02 05:08:10;;;;;;;;;;;22.80;47.50;;;;;;5113244;28;20318;-59
2023/11/02 05:10:37;;;;;;;;;;;22.80;47.40;;;;;;5109832;28;20010;-59
2023/11/02 05:13:04;;;;;;;;;;;22.80;47.40;;;;;;5110291;28;20429;-58
2023/11/02 05:15:31;;;;;;;;;;;22.80;47.40;;;;;;5113648;28;19966;-58
2023/11/02 05:17:58;;;;;;;;;;;22.70;47.40;;;;;;5113086;28;19937;-58
2023/11/02 05:20:27;;;;;;;;;;;22.70;47.40;;;;;;5114204;28;19959;-59
2023/11/02 05:22:55;;;;;;;;;;;22.70;47.30;;;;;;5116904;28;20431;-59
2023/11/02 05:25:23;;;;;;;;;;;22.70;47.30;;;;;;5116835;28;20342;-59
2023/11/02 05:27:50;;;;;;;;;;;22.70;47.30;;;;;;5117377;28;19969;-58
2023/11/02 05:30:17;;;;;;;;;;;22.70;47.30;;;;;;5117263;28;19927;-59
2023/11/02 05:32:44;;;;;;;;;;;22.70;47.30;;;;;;5117233;28;20454;-59
2023/11/02 05:35:12;;;;;;;;;;;22.70;47.30;;;;;;5117334;28;19947;-58
2023/11/02 05:37:39;;;;;;;;;;;22.70;47.20;;;;;;5116526;28;19985;-58
2023/11/02 05:40:07;;;;;;;;;;;22.60;47.20;;;;;;5111938;28;20315;-59
2023/11/02 05:42:34;;;;;;;;;;;22.70;47.20;;;;;;5113217;27;19924;-58
2023/11/02 05:45:05;;;;;;;;;;;22.70;47.20;;;;;;5117127;27;19954;-58
2023/11/02 05:47:32;;;;;;;;;;;22.60;47.10;;;;;;5098652;28;19931;-58
2023/11/02 05:49:59;;;;;;;;;;;22.60;47.00;;;;;;5115952;28;19969;-58
2023/11/02 05:52:26;;;;;;;;;;;22.60;47.00;;;;;;5116556;28;19931;-58
2023/11/02 05:54:53;;;;;;;;;;;22.70;47.10;;;;;;5098960;28;20283;-59
2023/11/02 05:57:20;;;;;;;;;;;22.70;47.00;;;;;;5116903;27;19928;-58
2023/11/02 05:59:47;;;;;;;;;;;22.70;46.90;;;;;;5107136;28;19924;-59
2023/11/02 06:02:14;;;;;;;;;;;22.70;46.90;;;;;;5115811;28;20031;-58
2023/11/02 06:04:41;;;;;;;;;;;22.70;46.80;;;;;;5114929;28;19923;-58
2023/11/02 06:07:08;;;;;;;;;;;22.70;46.80;;;;;;5111787;28;19946;-59
2023/11/02 06:09:36;;;;;;;;;;;22.70;46.80;;;;;;5115837;27;19980;-59
2023/11/02 06:12:03;;;;;;;;;;;22.70;46.70;;;;;;5110590;27;19927;-58
2023/11/02 06:14:30;;;;;;;;;;;22.70;46.80;;;;;;5120476;27;19957;-58
2023/11/02 06:16:57;;;;;;;;;;;22.80;47.00;;;;;;5136701;27;19923;-58
2023/11/02 06:19:24;;;;;;;;;;;22.80;47.00;;;;;;5123504;27;19924;-58
2023/11/02 06:21:51;;;;;;;;;;;22.80;47.10;;;;;;5108379;28;20371;-57
2023/11/02 06:24:18;;;;;;;;;;;22.80;47.10;;;;;;5103971;27;20387;-60
2023/11/02 06:26:45;;;;;;;;;;;22.80;47.10;;;;;;5110113;27;20388;-59
2023/11/02 06:29:13;;;;;;;;;;;22.80;47.30;;;;;;5101717;27;19928;-58
2023/11/02 06:31:40;;;;;;;;;;;22.80;47.60;;;;;;5100592;28;19927;-57
2023/11/02 06:34:07;;;;;;;;;;;22.90;47.90;;;;;;5102131;27;19932;-61
2023/11/02 06:36:35;;;;;;;;;;;23.00;48.10;;;;;;5104395;27;19998;-58
2023/11/02 06:39:02;;;;;;;;;;;23.00;48.10;;;;;;5104393;27;20379;-59
2023/11/02 06:41:29;;;;;;;;;;;23.00;48.00;;;;;;5099763;27;20364;-61
2023/11/02 06:43:57;;;;;;;;;;;23.10;48.00;;;;;;5101255;27;19981;-59
2023/11/02 06:46:24;;;;;;;;;;;23.10;47.90;;;;;;5098332;28;20364;-59
2023/11/02 06:48:51;;;;;;;;;;;23.10;47.70;;;;;;5100058;27;19938;-58
2023/11/02 06:51:19;;;;;;;;;;;23.20;47.60;;;;;;5084169;28;19924;-59
2023/11/02 06:53:47;;;;;;;;;;;23.20;47.50;;;;;;5104354;27;20349;-57
2023/11/02 06:56:14;;;;;;;;;;;23.20;47.40;;;;;;5101303;27;19984;-60
2023/11/02 06:58:41;;;;;;;;;;;23.20;47.30;;;;;;5101452;27;19936;-60
2023/11/02 07:01:08;;;;;;;;;;;23.30;47.30;;;;;;5096132;27;19942;-61
2023/11/02 07:03:35;;;;;;;;;;;23.30;47.20;;;;;;5096540;28;19928;-60
2023/11/02 07:06:04;;;;;;;;;;;23.30;47.10;;;;;;5104079;27;19936;-60
2023/11/02 07:08:31;;;;;;;;;;;23.40;47.10;;;;;;5100460;28;19967;-60
2023/11/02 07:10:59;;;;;;;;;;;23.40;47.00;;;;;;5094100;27;19928;-61
2023/11/02 07:13:26;;;;;;;;;;;23.40;47.00;;;;;;5099394;27;19927;-60
2023/11/02 07:15:53;;;;;;;;;;;23.40;47.00;;;;;;5107358;27;19928;-60
2023/11/02 07:18:20;;;;;;;;;;;23.50;47.10;;;;;;5109892;27;20021;-60
2023/11/02 07:20:47;;;;;;;;;;;23.60;47.10;;;;;;5106577;27;19959;-61
2023/11/02 07:23:16;;;;;;;;;;;23.60;47.10;;;;;;5108766;27;19923;-60
2023/11/02 07:25:43;;;;;;;;;;;23.60;47.10;;;;;;5100472;27;19932;-61
2023/11/02 07:28:10;;;;;;;;;;;23.70;47.00;;;;;;5094658;28;19923;-60
2023/11/02 07:30:37;;;;;;;;;;;23.70;46.90;;;;;;5106134;27;19925;-58
2023/11/02 07:33:04;;;;;;;;;;;23.70;46.70;;;;;;5103721;27;20015;-63
2023/11/02 07:35:32;;;;;;;;;;;23.80;46.80;;;;;;5106120;27;19934;-61
2023/11/02 07:37:59;;;;;;;;;;;23.80;46.70;;;;;;5100290;27;19939;-60
2023/11/02 07:40:26;;;;;;;;;;;23.90;46.70;;;;;;5098735;28;20349;-60
2023/11/02 07:42:53;;;;;;;;;;;23.90;46.60;;;;;;5095931;27;19997;-66
2023/11/02 07:45:20;;;;;;;;;;;23.90;46.50;;;;;;5091731;27;20044;-57
2023/11/02 07:47:48;;;;;;;;;;;23.90;46.50;;;;;;5102458;27;19924;-60
2023/11/02 07:50:15;;;;;;;;;;;24.00;46.40;;;;;;5107454;27;19934;-59
2023/11/02 07:52:42;;;;;;;;;;;24.00;46.30;;;;;;5111043;27;19927;-61
2023/11/02 07:55:10;;;;;;;;;;;24.00;46.20;;;;;;5102940;27;19994;-60
2023/11/02 07:57:37;;;;;;;;;;;24.10;46.80;;;;;;5108623;28;19928;-61
2023/11/02 08:00:06;;;;;;;;;;;24.10;46.10;;;;;;5108469;27;20018;-60
2023/11/02 08:02:34;;;;;;;;;;;24.10;46.10;;;;;;5109643;27;19972;-60
2023/11/02 08:05:02;;;;;;;;;;;24.10;45.90;;;;;;5102965;28;19994;-60
2023/11/02 08:07:30;;;;;;;;;;;24.10;45.90;;;;;;5087940;28;20332;-60
2023/11/02 08:09:57;;;;;;;;;;;24.10;45.60;;;;;;5115973;27;20352;-60
2023/11/02 08:12:25;;;;;;;;;;;24.20;45.60;;;;;;5105890;27;19961;-61
2023/11/02 08:14:55;;;;;;;;;;;24.20;45.50;;;;;;5104399;27;19932;-62
2023/11/02 08:17:27;;;;;;;;;;;24.20;45.50;;;;;;5075395;28;20068;-61
2023/11/02 08:19:56;;;;;;;;;;;24.20;45.40;;;;;;5103903;27;19928;-61
2023/11/02 08:22:23;;;;;;;;;;;24.20;45.40;;;;;;5085727;28;19935;-61
2023/11/02 08:24:50;;;;;;;;;;;24.20;45.40;;;;;;5114433;27;19927;-61
2023/11/02 08:27:17;;;;;;;;;;;24.30;45.40;;;;;;5110104;27;21390;-61
2023/11/02 08:29:47;;;;;;;;;;;24.30;45.40;;;;;;5107932;27;20299;-60
2023/11/02 08:32:14;;;;;;;;;;;24.30;45.30;;;;;;5100074;28;20348;-60
2023/11/02 08:34:41;;;;;;;;;;;24.30;45.30;;;;;;5105603;28;19931;-59
2023/11/02 08:37:11;;;;;;;;;;;24.30;45.30;;;;;;5105299;28;19930;-60
2023/11/02 08:39:38;;;;;;;;;;;24.30;45.20;;;;;;5108145;28;19931;-58
2023/11/02 08:42:06;;;;;;;;;;;24.40;45.30;;;;;;5105062;28;19932;-59
2023/11/02 08:44:33;;;;;;;;;;;24.40;45.20;;;;;;5103203;28;19927;-60
2023/11/02 08:47:00;;;;;;;;;;;24.40;45.10;;;;;;5109612;28;19928;-58
2023/11/02 08:49:27;;;;;;;;;;;24.40;45.10;;;;;;5106671;28;19923;-59
2023/11/02 08:51:54;;;;;;;;;;;24.40;45.30;;;;;;5107130;27;19974;-57
2023/11/02 08:54:22;;;;;;;;;;;24.50;45.30;;;;;;5109036;28;19928;-54
2023/11/02 08:56:49;;;;;;;;;;;24.50;45.30;;;;;;5106581;27;19924;-60
2023/11/02 08:59:17;;;;;;;;;;;24.50;45.20;;;;;;5110236;27;19924;-61
2023/11/02 09:01:44;;;;;;;;;;;24.50;45.10;;;;;;5109803;27;19935;-60
2023/11/02 09:04:11;;;;;;;;;;;24.50;45.00;;;;;;5108941;27;20303;-60
2023/11/02 09:06:38;;;;;;;;;;;24.50;44.90;;;;;;5092718;28;20057;-59
2023/11/02 09:09:05;;;;;;;;;;;24.50;44.80;;;;;;5107877;27;19924;-60
2023/11/02 09:11:33;;;;;;;;;;;24.50;44.70;;;;;;5110291;27;20014;-61
2023/11/02 09:14:00;;;;;;;;;;;24.50;44.70;;;;;;5110965;27;20426;-61
2023/11/02 09:16:27;;;;;;;;;;;24.50;44.60;;;;;;5109910;27;19967;-62
2023/11/02 09:18:58;;;;;;;;;;;24.60;44.60;;;;;;5113259;27;20022;-61
2023/11/02 09:21:27;;;;;;;;;;;24.60;44.70;;;;;;5102408;27;19934;-60
2023/11/02 09:23:54;;;;;;;;;;;24.60;44.80;;;;;;5111739;27;20018;-61
2023/11/02 09:26:21;;;;;;;;;;;24.60;44.70;;;;;;5102219;27;20507;-60
2023/11/02 09:28:52;;;;;;;;;;;24.60;44.70;;;;;;5110951;28;19928;-61
2023/11/02 09:31:21;;;;;;;;;;;24.60;44.60;;;;;;5108727;27;19924;-62
2023/11/02 09:33:49;;;;;;;;;;;24.70;44.70;;;;;;5110196;27;19924;-61
2023/11/02 09:36:17;;;;;;;;;;;24.70;44.50;;;;;;5114977;27;19930;-62
2023/11/02 09:38:45;;;;;;;;;;;24.70;44.40;;;;;;5117416;27;20298;-60
2023/11/02 09:41:13;;;;;;;;;;;24.70;44.30;;;;;;5112347;27;19931;-60
2023/11/02 09:43:41;;;;;;;;;;;24.70;44.70;;;;;;5106674;27;20016;-60
2023/11/02 09:46:09;;;;;;;;;;;24.70;44.10;;;;;;5112154;27;19931;-60
2023/11/02 09:48:36;;;;;;;;;;;24.70;44.10;;;;;;5107281;27;19931;-60
2023/11/02 09:51:03;;;;;;;;;;;24.70;44.00;;;;;;5108049;27;19989;-62
2023/11/02 09:53:30;;;;;;;;;;;24.80;44.00;;;;;;5108381;27;19931;-60
2023/11/02 09:55:58;;;;;;;;;;;24.80;43.80;;;;;;5103015;27;19971;-60
2023/11/02 09:58:26;;;;;;;;;;;24.80;43.80;;;;;;5106118;27;19927;-60
2023/11/02 10:00:53;;;;;;;;;;;24.80;43.80;;;;;;5105698;27;22332;-61
2023/11/02 10:03:20;;;;;;;;;;;24.90;43.80;;;;;;5109090;27;20334;-60
2023/11/02 10:05:48;;;;;;;;;;;24.90;43.80;;;;;;5107369;28;19985;-59
2023/11/02 10:08:15;;;;;;;;;;;24.90;43.90;;;;;;5107836;27;19936;-60
2023/11/02 10:10:42;;;;;;;;;;;24.90;44.00;;;;;;5105193;27;19939;-58
2023/11/02 10:13:13;;;;;;;;;;;24.90;44.00;;;;;;5108620;27;19928;-60
2023/11/02 10:15:40;;;;;;;;;;;24.90;44.00;;;;;;5109432;27;20388;-59
2023/11/02 10:18:14;;;;;;;;;;;24.90;44.00;;;;;;5104009;27;19928;-60
2023/11/02 10:20:43;;;;;;;;;;;25.00;44.10;;;;;;5104374;28;19934;-61
2023/11/02 10:23:13;;;;;;;;;;;25.00;44.60;;;;;;5107314;27;19923;-61
2023/11/02 10:25:40;;;;;;;;;;;25.00;43.90;;;;;;5104238;27;21222;-60
2023/11/02 10:28:07;;;;;;;;;;;25.10;44.10;;;;;;5103607;27;19970;-60
2023/11/02 10:30:37;;;;;;;;;;;25.10;44.10;;;;;;5107865;27;19977;-61
2023/11/02 10:33:05;;;;;;;;;;;25.10;43.80;;;;;;5090208;27;19936;-58
2023/11/02 10:35:33;;;;;;;;;;;25.20;43.60;;;;;;5108598;27;19931;-60
2023/11/02 10:38:00;;;;;;;;;;;25.20;43.70;;;;;;5106589;27;19927;-61
2023/11/02 10:40:44;;;;;;;;;;;25.30;43.80;;;;;;5106293;28;19927;-61
2023/11/02 10:43:18;;;;;;;;;;;25.30;43.60;;;;;;5108427;27;19928;-61
2023/11/02 10:45:48;;;;;;;;;;;25.30;43.50;;;;;;5111993;27;20408;-61
2023/11/02 10:48:19;;;;;;;;;;;25.30;43.20;;;;;;5113550;27;19924;-61
2023/11/02 10:50:47;;;;;;;;;;;25.40;43.20;;;;;;5109678;27;19924;-61
2023/11/02 10:53:24;;;;;;;;;;;25.40;42.80;;;;;;5115510;27;19978;-61
2023/11/02 10:55:55;;;;;;;;;;;25.40;42.30;;;;;;5110653;28;20368;-61
2023/11/02 10:58:22;;;;;;;;;;;25.40;42.20;;;;;;5115995;27;20066;-60
2023/11/02 11:00:52;;;;;;;;;;;25.40;42.20;;;;;;5092609;27;20439;-61
2023/11/02 11:03:21;;;;;;;;;;;25.50;42.30;;;;;;5113114;27;19931;-61
2023/11/02 11:05:49;;;;;;;;;;;25.40;42.20;;;;;;5110105;27;19923;-61
2023/11/02 11:08:17;;;;;;;;;;;25.50;42.00;;;;;;5101482;27;19962;-61
2023/11/02 11:10:44;;;;;;;;;;;25.50;42.10;;;;;;5118558;27;19927;-61
2023/11/02 11:13:12;;;;;;;;;;;25.50;42.20;;;;;;5108993;27;19932;-60
2023/11/02 11:15:40;;;;;;;;;;;25.50;42.30;;;;;;5105299;27;19927;-60
2023/11/02 11:18:07;;;;;;;;;;;25.50;42.10;;;;;;5108546;28;19923;-60
2023/11/02 11:20:34;;;;;;;;;;;25.50;42.10;;;;;;5106707;28;19935;-60
2023/11/02 11:23:04;;;;;;;;;;;25.60;42.10;;;;;;5074937;28;20208;-60
2023/11/02 11:25:31;;;;;;;;;;;25.50;41.70;;;;;;5107013;28;19976;-60
2023/11/02 11:27:58;;;;;;;;;;;25.50;41.60;;;;;;5108297;28;19928;-59
2023/11/02 11:30:34;;;;;;;;;;;25.50;41.60;;;;;;5100952;28;19932;-60
2023/11/02 11:33:01;;;;;;;;;;;25.50;41.80;;;;;;5107723;27;20348;-61
2023/11/02 11:35:29;;;;;;;;;;;25.50;42.00;;;;;;5104846;28;20384;-59
2023/11/02 11:37:57;;;;;;;;;;;25.50;42.20;;;;;;5103491;27;20369;-57
2023/11/02 11:40:31;;;;;;;;;;;25.60;42.60;;;;;;5103062;27;19959;-60
2023/11/02 11:43:04;;;;;;;;;;;25.60;42.60;;;;;;5091022;28;19928;-59
2023/11/02 11:45:36;;;;;;;;;;;25.60;42.50;;;;;;5110603;27;20039;-60
2023/11/02 11:48:05;;;;;;;;;;;25.60;42.30;;;;;;5100815;28;19924;-61
2023/11/02 11:50:34;;;;;;;;;;;25.70;42.40;;;;;;5096273;28;19936;-60
2023/11/02 11:53:12;;;;;;;;;;;25.70;42.30;;;;;;5094199;27;20368;-61
2023/11/02 11:55:39;;;;;;;;;;;25.70;42.20;;;;;;5098765;28;20328;-60
2023/11/02 11:58:08;;;;;;;;;;;25.70;42.00;;;;;;5104655;27;19932;-62
2023/11/02 12:00:36;;;;;;;;;;;25.80;41.80;;;;;;5104969;27;19932;-56
2023/11/02 12:03:24;;;;;;;;;;;25.80;41.90;;;;;;5110323;27;19924;-60
2023/11/02 12:05:52;;;;;;;;;;;25.80;42.00;;;;;;5104777;27;19923;-60
2023/11/02 12:08:19;;;;;;;;;;;25.80;41.90;;;;;;5111006;27;19928;-58
2023/11/02 12:10:46;;;;;;;;;;;25.80;41.90;;;;;;5108176;28;19931;-58
2023/11/02 12:13:14;;;;;;;;;;;25.90;41.60;;;;;;5108326;27;19931;-55
2023/11/02 12:15:58;;;;;;;;;;;25.90;41.70;;;;;;5102536;28;19935;-60
2023/11/02 12:18:27;;;;;;;;;;;25.90;41.80;;;;;;5104626;27;20318;-61
2023/11/02 12:20:56;;;;;;;;;;;25.90;41.80;;;;;;5090891;27;20387;-61
2023/11/02 12:23:31;;;;;;;;;;;25.90;41.70;;;;;;5105898;28;19927;-60
2023/11/02 12:26:00;;;;;;;;;;;25.90;41.90;;;;;;5101063;28;19927;-62
2023/11/02 12:28:27;;;;;;;;;;;25.90;41.60;;;;;;5092045;28;19934;-61
2023/11/02 12:30:54;;;;;;;;;;;26.00;42.20;;;;;;5095998;27;20341;-61
2023/11/02 12:33:21;;;;;;;;;;;26.00;41.80;;;;;;5102733;28;19939;-59
2023/11/02 12:35:55;;;;;;;;;;;26.00;41.70;;;;;;5104189;28;19924;-60
2023/11/02 12:38:36;;;;;;;;;;;26.10;41.80;;;;;;5105496;28;19932;-61
2023/11/02 12:41:05;;;;;;;;;;;26.10;41.70;;;;;;5104828;28;19930;-61
2023/11/02 12:43:39;;;;;;;;;;;26.10;41.80;;;;;;5106600;28;19935;-62
2023/11/02 12:46:08;;;;;;;;;;;26.10;41.50;;;;;;5106270;28;20318;-61
2023/11/02 12:48:37;;;;;;;;;;;26.10;41.60;;;;;;5101349;28;19937;-59
2023/11/02 12:51:19;;;;;;;;;;;26.10;41.50;;;;;;5105134;28;19946;-61
2023/11/02 12:53:48;;;;;;;;;;;26.10;41.30;;;;;;5104755;28;19966;-60
2023/11/02 12:56:20;;;;;;;;;;;26.10;41.30;;;;;;5102320;28;19932;-55
2023/11/02 12:58:56;;;;;;;;;;;26.10;41.50;;;;;;5102373;28;20368;-60
2023/11/02 13:01:24;;;;;;;;;;;26.10;41.80;;;;;;5110217;28;19931;-59
2023/11/02 13:04:03;;;;;;;;;;;26.10;41.80;;;;;;5106111;28;19924;-61
2023/11/02 13:06:35;;;;;;;;;;;26.10;41.80;;;;;;5112534;28;19931;-60
2023/11/02 13:09:11;;;;;;;;;;;26.10;41.80;;;;;;5085173;28;19924;-59
2023/11/02 13:11:41;;;;;;;;;;;26.10;41.80;;;;;;5106720;28;19963;-60
2023/11/02 13:14:08;;;;;;;;;;;26.10;41.80;;;;;;5103450;28;19932;-59
2023/11/02 13:16:36;;;;;;;;;;;26.10;41.80;;;;;;5101599;28;20354;-59
2023/11/02 13:19:03;;;;;;;;;;;26.00;41.50;;;;;;5108651;28;19928;-59
2023/11/02 13:21:31;;;;;;;;;;;26.00;41.30;;;;;;5108388;28;19927;-60
2023/11/02 13:23:58;;;;;;;;;;;26.10;41.40;;;;;;5106413;28;19994;-58
2023/11/02 13:26:26;;;;;;;;;;;26.00;41.50;;;;;;5111182;28;20540;-61
2023/11/02 13:28:54;;;;;;;;;;;26.00;41.50;;;;;;5111079;28;19932;-60
2023/11/02 13:31:21;;;;;;;;;;;26.00;41.50;;;;;;5101531;28;20354;-59
2023/11/02 13:33:49;;;;;;;;;;;26.00;41.50;;;;;;5098614;28;19932;-60
2023/11/02 13:36:16;;;;;;;;;;;26.00;41.50;;;;;;5097204;28;19955;-60
2023/11/02 13:38:45;;;;;;;;;;;26.00;41.60;;;;;;5105069;28;19944;-59
2023/11/02 13:41:13;;;;;;;;;;;26.00;41.70;;;;;;5103849;28;19924;-60
2023/11/02 13:43:40;;;;;;;;;;;26.00;41.80;;;;;;5104941;27;19970;-61
2023/11/02 13:46:09;;;;;;;;;;;26.00;41.90;;;;;;5111467;27;19999;-60
2023/11/02 13:48:36;;;;;;;;;;;26.00;41.90;;;;;;5108809;27;19932;-58
2023/11/02 13:51:04;;;;;;;;;;;25.90;41.80;;;;;;5106711;27;20386;-61
2023/11/02 13:53:32;;;;;;;;;;;25.90;41.80;;;;;;5098443;27;19970;-61
2023/11/02 13:55:59;;;;;;;;;;;25.90;41.80;;;;;;5103941;27;19928;-60
2023/11/02 13:58:26;;;;;;;;;;;25.90;41.80;;;;;;5109147;27;19923;-59
2023/11/02 14:00:55;;;;;;;;;;;25.80;42.00;;;;;;5106556;27;19975;-60
2023/11/02 14:03:22;;;;;;;;;;;25.80;41.90;;;;;;5106566;27;19992;-60
2023/11/02 14:05:51;;;;;;;;;;;25.80;42.70;;;;;;5108095;27;19928;-61
2023/11/02 14:08:19;;;;;;;;;;;25.80;42.30;;;;;;5105268;27;19977;-59
2023/11/02 14:10:46;;;;;;;;;;;25.80;42.30;;;;;;5112341;27;20047;-59
2023/11/02 14:13:13;;;;;;;;;;;25.80;42.40;;;;;;5112102;27;19969;-59
2023/11/02 14:15:42;;;;;;;;;;;25.80;42.60;;;;;;5112314;27;20198;-60
2023/11/02 14:18:10;;;;;;;;;;;25.80;42.70;;;;;;5109945;27;19971;-59
2023/11/02 14:20:38;;;;;;;;;;;25.80;42.30;;;;;;5084548;28;19928;-60
2023/11/02 14:23:05;;;;;;;;;;;25.80;42.10;;;;;;5107960;27;19938;-59
2023/11/02 14:25:32;;;;;;;;;;;25.80;42.20;;;;;;5088587;27;20270;-59
2023/11/02 14:27:59;;;;;;;;;;;25.80;42.20;;;;;;5101083;27;20349;-61
2023/11/02 14:30:27;;;;;;;;;;;25.80;42.20;;;;;;5081185;28;19924;-60
2023/11/02 14:32:55;;;;;;;;;;;25.80;42.20;;;;;;5106575;27;19928;-61